Time;durP1;ratioP1;P1;durP2;ratioP2;P2;SDS_P1;SDS_P2;PMS_P1;PMS_P2;Temp;Humidity;BMP_temperature;BMP_pressure;BME280_temperature;BME280_humidity;BME280_pressure;Samples;Min_cycle;Max_cycle;Signal;HPM_P1;HPM_P2
2022/10/31 00:00:27;;;;;;;;;;;;;;;;;;6232981;22;20281;-86
2022/10/31 00:02:53;;;;;;;;;;;;;;;;;;6257013;22;20382;-86
2022/10/31 00:05:19;;;;;;;;;;;;;;;;;;6255929;22;19957;-86
2022/10/31 00:07:45;;;;;;;;;;;;;;;;;;6257811;22;19919;-86
2022/10/31 00:10:11;;;;;;;;;;;;;;;;;;6229795;22;20619;-86
2022/10/31 00:12:37;;;;;;;;;;;;;;;;;;6255619;22;20240;-86
2022/10/31 00:15:03;;;;;;;;;;;;;;;;;;6258659;22;20327;-86
2022/10/31 00:17:29;;;;;;;;;;;;;;;;;;6254546;22;19951;-85
2022/10/31 00:19:55;;;;;;;;;;;;;;;;;;6258701;22;19953;-86
2022/10/31 00:22:20;;;;;;;;;;;;;;;;;;6254223;22;19919;-85
2022/10/31 00:24:46;;;;;;;;;;;;;;;;;;6261468;22;20248;-85
2022/10/31 00:27:12;;;;;;;;;;;;;;;;;;6229631;22;19919;-86
2022/10/31 00:29:38;;;;;;;;;;;;;;;;;;6232527;22;19919;-86
2022/10/31 00:32:07;;;;;;;;;;;;;;;;;;6231979;22;20484;-86
2022/10/31 00:34:33;;;;;;;;;;;;;;;;;;6232135;22;19919;-86
2022/10/31 00:36:59;;;;;;;;;;;;;;;;;;6233735;22;19919;-86
2022/10/31 00:39:25;;;;;;;;;;;;;;;;;;6231649;22;19919;-87
2022/10/31 00:41:51;;;;;;;;;;;;;;;;;;6258634;22;20040;-85
2022/10/31 00:44:17;;;;;;;;;;;;;;;;;;6256018;22;19919;-86
2022/10/31 00:46:42;;;;;;;;;;;;;;;;;;6231645;22;20094;-86
2022/10/31 00:49:08;;;;;;;;;;;;;;;;;;6254026;22;19930;-86
2022/10/31 00:51:34;;;;;;;;;;;;;;;;;;6232952;22;19968;-86
2022/10/31 00:54:00;;;;;;;;;;;;;;;;;;6257961;22;19923;-86
2022/10/31 00:56:26;;;;;;;;;;;;;;;;;;6230331;22;19920;-85
2022/10/31 00:58:52;;;;;;;;;;;;;;;;;;6231626;22;19919;-86
2022/10/31 01:01:18;;;;;;;;;;;;;;;;;;6222030;23;19939;-86
2022/10/31 01:03:44;;;;;;;;;;;;;;;;;;6226682;23;19920;-86
2022/10/31 01:06:10;;;;;;;;;;;;;;;;;;6224098;23;19974;-86
2022/10/31 01:08:36;;;;;;;;;;;;;;;;;;6227148;23;19923;-85
2022/10/31 01:11:02;;;;;;;;;;;;;;;;;;6227609;23;19919;-85
2022/10/31 01:13:28;;;;;;;;;;;;;;;;;;6222840;23;20413;-85
2022/10/31 01:15:54;;;;;;;;;;;;;;;;;;6227163;23;20339;-85
2022/10/31 01:18:20;;;;;;;;;;;;;;;;;;6222838;23;20427;-86
2022/10/31 01:20:46;;;;;;;;;;;;;;;;;;6225546;23;19953;-85
2022/10/31 01:23:12;;;;;;;;;;;;;;;;;;6226874;23;19927;-85
2022/10/31 01:25:38;;;;;;;;;;;;;;;;;;6228328;23;20340;-85
2022/10/31 01:28:04;;;;;;;;;;;;;;;;;;6229793;23;20300;-86
2022/10/31 01:30:30;;;;;;;;;;;;;;;;;;6228041;23;20308;-86
2022/10/31 01:32:56;;;;;;;;;;;;;;;;;;6227155;23;19958;-85
2022/10/31 01:35:21;;;;;;;;;;;;;;;;;;6227144;22;19926;-85
2022/10/31 01:37:47;;;;;;;;;;;;;;;;;;6227972;22;19920;-85
2022/10/31 01:40:13;;;;;;;;;;;;;;;;;;6224628;23;19985;-85
2022/10/31 01:42:39;;;;;;;;;;;;;;;;;;6232736;22;20336;-85
2022/10/31 01:45:05;;;;;;;;;;;;;;;;;;6224387;23;20331;-86
2022/10/31 01:47:31;;;;;;;;;;;;;;;;;;6225043;23;19931;-85
2022/10/31 01:49:57;;;;;;;;;;;;;;;;;;6223081;23;19923;-85
2022/10/31 01:52:23;;;;;;;;;;;;;;;;;;6218941;23;20022;-86
2022/10/31 01:54:50;;;;;;;;;;;;;;;;;;6219925;22;19923;-86
2022/10/31 01:57:16;;;;;;;;;;;;;;;;;;6221861;23;19940;-86
2022/10/31 01:59:42;;;;;;;;;;;;;;;;;;6225525;23;19923;-86
2022/10/31 02:02:08;;;;;;;;;;;;;;;;;;6219875;23;19923;-86
2022/10/31 02:04:34;;;;;;;;;;;;;;;;;;6200516;23;20397;-86
2022/10/31 02:07:00;;;;;;;;;;;;;;;;;;6201455;23;20218;-85
2022/10/31 02:09:26;;;;;;;;;;;;;;;;;;6196537;23;19998;-86
2022/10/31 02:11:52;;;;;;;;;;;;;;;;;;6199847;23;19950;-86
2022/10/31 02:14:18;;;;;;;;;;;;;;;;;;6196990;23;19919;-86
2022/10/31 02:16:44;;;;;;;;;;;;;;;;;;6196978;23;19954;-86
2022/10/31 02:19:10;;;;;;;;;;;;;;;;;;6199229;23;20337;-86
2022/10/31 02:21:36;;;;;;;;;;;;;;;;;;6200783;23;19920;-86
2022/10/31 02:24:02;;;;;;;;;;;;;;;;;;6202718;23;19995;-86
2022/10/31 02:26:27;;;;;;;;;;;;;;;;;;6199185;23;19919;-86
2022/10/31 02:28:53;;;;;;;;;;;;;;;;;;6199174;23;19923;-86
2022/10/31 02:31:19;;;;;;;;;;;;;;;;;;6197624;23;19954;-86
2022/10/31 02:33:45;;;;;;;;;;;;;;;;;;6200885;23;19941;-86
2022/10/31 02:36:11;;;;;;;;;;;;;;;;;;6197111;23;19919;-86
2022/10/31 02:38:37;;;;;;;;;;;;;;;;;;6200177;23;19920;-86
2022/10/31 02:41:03;;;;;;;;;;;;;;;;;;6200462;23;20688;-86
2022/10/31 02:43:29;;;;;;;;;;;;;;;;;;6200606;23;19985;-86
2022/10/31 02:45:55;;;;;;;;;;;;;;;;;;6198095;23;19923;-86
2022/10/31 02:48:21;;;;;;;;;;;;;;;;;;6196782;23;19923;-86
2022/10/31 02:50:47;;;;;;;;;;;;;;;;;;6198287;23;19938;-86
2022/10/31 02:53:13;;;;;;;;;;;;;;;;;;6197162;23;19926;-87
2022/10/31 02:55:39;;;;;;;;;;;;;;;;;;6202494;23;19919;-86
2022/10/31 02:58:05;;;;;;;;;;;;;;;;;;6199461;23;20291;-86
2022/10/31 03:00:31;;;;;;;;;;;;;;;;;;6205630;22;19930;-86
2022/10/31 03:02:57;;;;;;;;;;;;;;;;;;6231323;22;19919;-86
2022/10/31 03:05:23;;;;;;;;;;;;;;;;;;6227427;22;19923;-86
2022/10/31 03:07:49;;;;;;;;;;;;;;;;;;6256574;22;19994;-86
2022/10/31 03:10:15;;;;;;;;;;;;;;;;;;6253502;22;19934;-86
2022/10/31 03:12:41;;;;;;;;;;;;;;;;;;6255986;22;19925;-86
2022/10/31 03:15:07;;;;;;;;;;;;;;;;;;6226875;22;19922;-86
2022/10/31 03:17:32;;;;;;;;;;;;;;;;;;6255545;22;19919;-86
2022/10/31 03:19:58;;;;;;;;;;;;;;;;;;6229124;22;19919;-86
2022/10/31 03:22:24;;;;;;;;;;;;;;;;;;6255394;22;19950;-85
2022/10/31 03:24:50;;;;;;;;;;;;;;;;;;6232761;22;19919;-86
2022/10/31 03:27:16;;;;;;;;;;;;;;;;;;6229483;22;19919;-86
2022/10/31 03:29:42;;;;;;;;;;;;;;;;;;6230136;22;19923;-86
2022/10/31 03:32:08;;;;;;;;;;;;;;;;;;6253277;22;20027;-85
2022/10/31 03:34:34;;;;;;;;;;;;;;;;;;6229204;22;19915;-85
2022/10/31 03:37:00;;;;;;;;;;;;;;;;;;6254446;22;19923;-85
2022/10/31 03:39:26;;;;;;;;;;;;;;;;;;6230110;22;19961;-86
2022/10/31 03:41:52;;;;;;;;;;;;;;;;;;6256743;22;19920;-86
2022/10/31 03:44:18;;;;;;;;;;;;;;;;;;6227820;22;19923;-86
2022/10/31 03:46:44;;;;;;;;;;;;;;;;;;6236943;22;19958;-85
2022/10/31 03:49:10;;;;;;;;;;;;;;;;;;6232508;22;19927;-86
2022/10/31 03:51:36;;;;;;;;;;;;;;;;;;6234271;22;20256;-85
2022/10/31 03:54:02;;;;;;;;;;;;;;;;;;6237228;22;20040;-85
2022/10/31 03:56:27;;;;;;;;;;;;;;;;;;6233774;22;19919;-85
2022/10/31 03:58:53;;;;;;;;;;;;;;;;;;6236298;22;19919;-86
2022/10/31 04:01:19;;;;;;;;;;;;;;;;;;6227964;23;19985;-84
2022/10/31 04:03:45;;;;;;;;;;;;;;;;;;6231750;23;20399;-84
2022/10/31 04:06:11;;;;;;;;;;;;;;;;;;6228883;23;20691;-84
2022/10/31 04:08:37;;;;;;;;;;;;;;;;;;6230416;23;20049;-84
2022/10/31 04:11:03;;;;;;;;;;;;;;;;;;6228107;23;19925;-84
2022/10/31 04:13:29;;;;;;;;;;;;;;;;;;6228473;23;19923;-84
2022/10/31 04:15:55;;;;;;;;;;;;;;;;;;6230720;23;19923;-84
2022/10/31 04:18:21;;;;;;;;;;;;;;;;;;6229025;23;19916;-86
2022/10/31 04:20:49;;;;;;;;;;;;;;;;;;6230727;23;19959;-85
2022/10/31 04:23:15;;;;;;;;;;;;;;;;;;6228363;23;20328;-85
2022/10/31 04:25:41;;;;;;;;;;;;;;;;;;6229529;23;19966;-85
2022/10/31 04:28:07;;;;;;;;;;;;;;;;;;6225738;23;20540;-86
2022/10/31 04:30:33;;;;;;;;;;;;;;;;;;6222147;23;20011;-86
2022/10/31 04:32:59;;;;;;;;;;;;;;;;;;6228182;23;19919;-85
2022/10/31 04:35:25;;;;;;;;;;;;;;;;;;6225065;23;19919;-85
2022/10/31 04:37:51;;;;;;;;;;;;;;;;;;6226457;23;19926;-85
2022/10/31 04:40:17;;;;;;;;;;;;;;;;;;6221253;23;20321;-85
2022/10/31 04:42:43;;;;;;;;;;;;;;;;;;6228870;22;20493;-85
2022/10/31 04:45:09;;;;;;;;;;;;;;;;;;6226036;22;20301;-85
2022/10/31 04:47:35;;;;;;;;;;;;;;;;;;6229750;23;20255;-85
2022/10/31 04:50:00;;;;;;;;;;;;;;;;;;6227084;23;20317;-85
2022/10/31 04:52:26;;;;;;;;;;;;;;;;;;6222044;23;20004;-85
2022/10/31 04:54:52;;;;;;;;;;;;;;;;;;6229006;22;19920;-85
2022/10/31 04:57:18;;;;;;;;;;;;;;;;;;6224536;23;19931;-85
2022/10/31 04:59:44;;;;;;;;;;;;;;;;;;6228964;22;19987;-85
2022/10/31 05:02:10;;;;;;;;;;;;;;;;;;6225245;23;19924;-85
2022/10/31 05:04:36;;;;;;;;;;;;;;;;;;6229349;23;19920;-85
2022/10/31 05:07:02;;;;;;;;;;;;;;;;;;6227582;23;19919;-85
2022/10/31 05:09:28;;;;;;;;;;;;;;;;;;6225814;23;19923;-85
2022/10/31 05:11:54;;;;;;;;;;;;;;;;;;6229305;23;19931;-85
2022/10/31 05:14:20;;;;;;;;;;;;;;;;;;6224658;23;19934;-85
2022/10/31 05:16:46;;;;;;;;;;;;;;;;;;6226612;23;19955;-85
2022/10/31 05:19:12;;;;;;;;;;;;;;;;;;6223743;23;19950;-85
2022/10/31 05:21:38;;;;;;;;;;;;;;;;;;6228793;23;19997;-85
2022/10/31 05:24:04;;;;;;;;;;;;;;;;;;6229280;23;19920;-85
2022/10/31 05:26:30;;;;;;;;;;;;;;;;;;6226653;23;19951;-85
2022/10/31 05:28:55;;;;;;;;;;;;;;;;;;6229030;23;19931;-85
2022/10/31 05:31:21;;;;;;;;;;;;;;;;;;6229184;23;20336;-85
2022/10/31 05:33:47;;;;;;;;;;;;;;;;;;6228624;23;19920;-84
2022/10/31 05:36:13;;;;;;;;;;;;;;;;;;6224851;23;20305;-84
2022/10/31 05:38:39;;;;;;;;;;;;;;;;;;6227740;23;19923;-85
2022/10/31 05:41:05;;;;;;;;;;;;;;;;;;6226624;23;20007;-84
2022/10/31 05:43:31;;;;;;;;;;;;;;;;;;6225899;23;19920;-84
2022/10/31 05:45:57;;;;;;;;;;;;;;;;;;6225346;23;19923;-84
2022/10/31 05:48:23;;;;;;;;;;;;;;;;;;6222907;23;20373;-84
2022/10/31 05:50:49;;;;;;;;;;;;;;;;;;6230038;23;19930;-84
2022/10/31 05:53:15;;;;;;;;;;;;;;;;;;6228682;23;19920;-84
2022/10/31 05:55:41;;;;;;;;;;;;;;;;;;6225984;22;19950;-85
2022/10/31 05:58:07;;;;;;;;;;;;;;;;;;6226902;23;19966;-84
2022/10/31 06:00:34;;;;;;;;;;;;;;;;;;6228030;22;20409;-84
2022/10/31 06:03:00;;;;;;;;;;;;;;;;;;6231487;22;19926;-84
2022/10/31 06:05:26;;;;;;;;;;;;;;;;;;6229217;22;19919;-84
2022/10/31 06:07:52;;;;;;;;;;;;;;;;;;6231367;22;19973;-84
2022/10/31 06:10:20;;;;;;;;;;;;;;;;;;6251741;22;19927;-84
2022/10/31 06:12:46;;;;;;;;;;;;;;;;;;6259366;22;20009;-84
2022/10/31 06:15:12;;;;;;;;;;;;;;;;;;6229352;22;20650;-85
2022/10/31 06:17:38;;;;;;;;;;;;;;;;;;6231590;22;20391;-84
2022/10/31 06:20:04;;;;;;;;;;;;;;;;;;6228956;22;19919;-84
2022/10/31 06:22:31;;;;;;;;;;;;;;;;;;6230508;22;19923;-84
2022/10/31 06:24:57;;;;;;;;;;;;;;;;;;6234440;22;19915;-84
2022/10/31 06:27:23;;;;;;;;;;;;;;;;;;6253273;22;19943;-84
2022/10/31 06:29:49;;;;;;;;;;;;;;;;;;6260065;22;19923;-84
2022/10/31 06:32:15;;;;;;;;;;;;;;;;;;6258455;22;20335;-84
2022/10/31 06:34:41;;;;;;;;;;;;;;;;;;6237575;22;20000;-84
2022/10/31 06:37:07;;;;;;;;;;;;;;;;;;6235302;22;19950;-84
2022/10/31 06:39:33;;;;;;;;;;;;;;;;;;6264006;22;20273;-84
2022/10/31 06:41:59;;;;;;;;;;;;;;;;;;6263541;22;19926;-84
2022/10/31 06:44:25;;;;;;;;;;;;;;;;;;6232634;22;20247;-84
2022/10/31 06:46:51;;;;;;;;;;;;;;;;;;6257275;22;19957;-84
2022/10/31 06:49:16;;;;;;;;;;;;;;;;;;6228548;22;19953;-84
2022/10/31 06:51:42;;;;;;;;;;;;;;;;;;6225826;22;19919;-84
2022/10/31 06:54:08;;;;;;;;;;;;;;;;;;6254871;22;19988;-84
2022/10/31 06:56:34;;;;;;;;;;;;;;;;;;6234859;22;19954;-85
2022/10/31 06:59:00;;;;;;;;;;;;;;;;;;6229542;22;19923;-83
2022/10/31 07:01:26;;;;;;;;;;;;;;;;;;6228874;22;19923;-84
2022/10/31 07:03:52;;;;;;;;;;;;;;;;;;6232367;22;19923;-85
2022/10/31 07:06:18;;;;;;;;;;;;;;;;;;6228561;22;19923;-84
2022/10/31 07:08:44;;;;;;;;;;;;;;;;;;6231939;22;19998;-84
2022/10/31 07:11:10;;;;;;;;;;;;;;;;;;6257099;22;19926;-84
2022/10/31 07:13:36;;;;;;;;;;;;;;;;;;6235818;22;20796;-84
2022/10/31 07:16:02;;;;;;;;;;;;;;;;;;6233407;22;19934;-85
2022/10/31 07:18:28;;;;;;;;;;;;;;;;;;6232980;22;20045;-84
2022/10/31 07:21:00;;;;;;;;;;;;;;;;;;6233837;22;19926;-84
2022/10/31 07:23:26;;;;;;;;;;;;;;;;;;6236138;22;19918;-84
2022/10/31 07:25:52;;;;;;;;;;;;;;;;;;6236061;22;20355;-84
2022/10/31 07:28:18;;;;;;;;;;;;;;;;;;6234034;22;19923;-84
2022/10/31 07:30:44;;;;;;;;;;;;;;;;;;6235797;22;19923;-84
2022/10/31 07:33:15;;;;;;;;;;;;;;;;;;6234134;22;19919;-85
2022/10/31 07:35:41;;;;;;;;;;;;;;;;;;6260935;22;20379;-84
2022/10/31 07:38:07;;;;;;;;;;;;;;;;;;6229879;22;19920;-84
2022/10/31 07:40:39;;;;;;;;;;;;;;;;;;6234327;22;20360;-84
2022/10/31 07:43:07;;;;;;;;;;;;;;;;;;6236149;22;19922;-84
2022/10/31 07:45:33;;;;;;;;;;;;;;;;;;6233536;22;20256;-84
2022/10/31 07:48:03;;;;;;;;;;;;;;;;;;6233296;22;19929;-87
2022/10/31 07:50:29;;;;;;;;;;;;;;;;;;6258296;22;19944;-83
2022/10/31 07:52:55;;;;;;;;;;;;;;;;;;6238184;22;20322;-85
2022/10/31 07:55:20;;;;;;;;;;;;;;;;;;6234075;22;19961;-84
2022/10/31 07:57:46;;;;;;;;;;;;;;;;;;6238485;22;19954;-84
2022/10/31 08:00:12;;;;;;;;;;;;;;;;;;6234618;22;19915;-85
2022/10/31 08:02:38;;;;;;;;;;;;;;;;;;6262065;22;19994;-85
2022/10/31 08:05:07;;;;;;;;;;;;;;;;;;6235846;22;20347;-86
2022/10/31 08:07:33;;;;;;;;;;;;;;;;;;6262216;22;20236;-86
2022/10/31 08:09:59;;;;;;;;;;;;;;;;;;6237569;22;19931;-85
2022/10/31 08:12:25;;;;;;;;;;;;;;;;;;6236276;22;20013;-86
2022/10/31 08:14:51;;;;;;;;;;;;;;;;;;6236947;22;19920;-86
2022/10/31 08:17:17;;;;;;;;;;;;;;;;;;6259500;22;19991;-86
2022/10/31 08:19:45;;;;;;;;;;;;;;;;;;6238416;22;19974;-84
2022/10/31 08:22:11;;;;;;;;;;;;;;;;;;6235213;22;19915;-84
2022/10/31 08:24:37;;;;;;;;;;;;;;;;;;6239886;22;19973;-84
2022/10/31 08:27:03;;;;;;;;;;;;;;;;;;6240504;22;19919;-85
2022/10/31 08:29:32;;;;;;;;;;;;;;;;;;6239998;22;20355;-85
2022/10/31 08:31:58;;;;;;;;;;;;;;;;;;6240003;22;20005;-84
2022/10/31 08:34:24;;;;;;;;;;;;;;;;;;6263213;22;19921;-84
2022/10/31 08:36:50;;;;;;;;;;;;;;;;;;6237631;22;19930;-85
2022/10/31 08:39:16;;;;;;;;;;;;;;;;;;6238038;22;19916;-84
2022/10/31 08:41:42;;;;;;;;;;;;;;;;;;6238014;22;19919;-85
2022/10/31 08:44:08;;;;;;;;;;;;;;;;;;6238829;22;19915;-85
2022/10/31 08:46:35;;;;;;;;;;;;;;;;;;6263541;22;20387;-85
2022/10/31 08:49:01;;;;;;;;;;;;;;;;;;6263459;22;19990;-84
2022/10/31 08:51:27;;;;;;;;;;;;;;;;;;6236877;22;20552;-85
2022/10/31 08:53:53;;;;;;;;;;;;;;;;;;6264287;22;19982;-85
2022/10/31 08:56:22;;;;;;;;;;;;;;;;;;6238015;22;20008;-85
2022/10/31 08:58:48;;;;;;;;;;;;;;;;;;6240570;22;19992;-85
2022/10/31 09:01:14;;;;;;;;;;;;;;;;;;6232059;23;19970;-85
2022/10/31 09:03:40;;;;;;;;;;;;;;;;;;6235264;23;20026;-85
2022/10/31 09:06:08;;;;;;;;;;;;;;;;;;6230643;23;20007;-85
2022/10/31 09:08:34;;;;;;;;;;;;;;;;;;6234599;23;20317;-85
2022/10/31 09:11:00;;;;;;;;;;;;;;;;;;6233140;23;19920;-85
2022/10/31 09:13:32;;;;;;;;;;;;;;;;;;6233426;23;20315;-85
2022/10/31 09:15:58;;;;;;;;;;;;;;;;;;6234976;23;19943;-85
2022/10/31 09:18:24;;;;;;;;;;;;;;;;;;6231283;23;19920;-85
2022/10/31 09:20:50;;;;;;;;;;;;;;;;;;6233769;23;19919;-85
2022/10/31 09:23:16;;;;;;;;;;;;;;;;;;6234385;23;19926;-85
2022/10/31 09:25:42;;;;;;;;;;;;;;;;;;6235618;23;20355;-85
2022/10/31 09:28:08;;;;;;;;;;;;;;;;;;6231766;23;19926;-85
2022/10/31 09:30:34;;;;;;;;;;;;;;;;;;6235305;23;20002;-85
2022/10/31 09:33:00;;;;;;;;;;;;;;;;;;6233227;23;20237;-86
2022/10/31 09:35:26;;;;;;;;;;;;;;;;;;6233243;23;19991;-86
2022/10/31 09:37:52;;;;;;;;;;;;;;;;;;6236771;23;19919;-86
2022/10/31 09:40:18;;;;;;;;;;;;;;;;;;6234862;23;19985;-86
2022/10/31 09:42:44;;;;;;;;;;;;;;;;;;6234651;23;19920;-85
2022/10/31 09:45:10;;;;;;;;;;;;;;;;;;6234494;23;19919;-86
2022/10/31 09:47:36;;;;;;;;;;;;;;;;;;6235350;23;20336;-86
2022/10/31 09:50:02;;;;;;;;;;;;;;;;;;6233765;23;19923;-86
2022/10/31 09:52:34;;;;;;;;;;;;;;;;;;6233044;23;19919;-86
2022/10/31 09:55:12;;;;;;;;;;;;;;;;;;6236063;22;20260;-86
2022/10/31 09:57:38;;;;;;;;;;;;;;;;;;6233251;23;19926;-86
2022/10/31 10:00:06;;;;;;;;;;;;;;;;;;6233127;23;19923;-86
2022/10/31 10:02:32;;;;;;;;;;;;;;;;;;6232336;23;19926;-86
2022/10/31 10:04:58;;;;;;;;;;;;;;;;;;6231947;23;19994;-86
2022/10/31 10:07:24;;;;;;;;;;;;;;;;;;6229140;23;19977;-86
2022/10/31 10:09:50;;;;;;;;;;;;;;;;;;6231348;23;20352;-87
2022/10/31 10:12:16;;;;;;;;;;;;;;;;;;6229571;23;19919;-86
2022/10/31 10:14:42;;;;;;;;;;;;;;;;;;6231052;23;20012;-87
2022/10/31 10:17:08;;;;;;;;;;;;;;;;;;6230995;23;19934;-86
2022/10/31 10:19:34;;;;;;;;;;;;;;;;;;6230847;23;19970;-86
2022/10/31 10:22:00;;;;;;;;;;;;;;;;;;6260477;22;19930;-86
2022/10/31 10:24:26;;;;;;;;;;;;;;;;;;6229710;23;19920;-87
2022/10/31 10:26:52;;;;;;;;;;;;;;;;;;6233613;23;19920;-89
2022/10/31 10:29:18;;;;;;;;;;;;;;;;;;6230700;23;20309;-87
2022/10/31 10:31:45;;;;;;;;;;;;;;;;;;6233145;23;19919;-86
2022/10/31 10:34:11;;;;;;;;;;;;;;;;;;6228981;23;20647;-87
2022/10/31 10:36:37;;;;;;;;;;;;;;;;;;6230984;23;19949;-87
2022/10/31 10:39:03;;;;;;;;;;;;;;;;;;6232623;23;19920;-87
2022/10/31 10:41:29;;;;;;;;;;;;;;;;;;6229591;23;20002;-86
2022/10/31 10:43:55;;;;;;;;;;;;;;;;;;6231737;23;20019;-86
2022/10/31 10:49:06;;;;;;;;;;;;;;;;;;6231389;23;20340;-87
2022/10/31 10:51:32;;;;;;;;;;;;;;;;;;6229380;23;19946;-86
2022/10/31 10:54:01;;;;;;;;;;;;;;;;;;6232722;22;19950;-86
2022/10/31 10:56:27;;;;;;;;;;;;;;;;;;6230723;23;19927;-86
2022/10/31 10:58:53;;;;;;;;;;;;;;;;;;6230274;23;19923;-86
2022/10/31 11:01:19;;;;;;;;;;;;;;;;;;6228938;23;19924;-87
2022/10/31 11:03:45;;;;;;;;;;;;;;;;;;6233478;23;19974;-86
2022/10/31 11:06:11;;;;;;;;;;;;;;;;;;6229428;23;19920;-86
2022/10/31 11:08:37;;;;;;;;;;;;;;;;;;6231998;23;19927;-86
2022/10/31 11:11:03;;;;;;;;;;;;;;;;;;6231759;23;20390;-86
2022/10/31 11:13:29;;;;;;;;;;;;;;;;;;6230892;23;19916;-87
2022/10/31 11:15:55;;;;;;;;;;;;;;;;;;6233888;23;19920;-86
2022/10/31 11:18:21;;;;;;;;;;;;;;;;;;6228667;23;19919;-86
2022/10/31 11:20:47;;;;;;;;;;;;;;;;;;6231856;23;19925;-86
2022/10/31 11:23:13;;;;;;;;;;;;;;;;;;6227463;23;19916;-86
2022/10/31 11:25:39;;;;;;;;;;;;;;;;;;6232104;23;20244;-86
2022/10/31 11:28:05;;;;;;;;;;;;;;;;;;6232075;23;19986;-87
2022/10/31 11:30:31;;;;;;;;;;;;;;;;;;6230318;23;20609;-86
2022/10/31 11:32:57;;;;;;;;;;;;;;;;;;6230906;23;19990;-86
2022/10/31 11:35:23;;;;;;;;;;;;;;;;;;6227101;23;19931;-86
2022/10/31 11:37:49;;;;;;;;;;;;;;;;;;6230586;23;19923;-87
2022/10/31 11:40:15;;;;;;;;;;;;;;;;;;6228751;23;19926;-87
2022/10/31 11:42:41;;;;;;;;;;;;;;;;;;6232023;23;19919;-87
2022/10/31 11:45:07;;;;;;;;;;;;;;;;;;6232102;22;19994;-87
2022/10/31 11:47:33;;;;;;;;;;;;;;;;;;6231552;23;19926;-87
2022/10/31 11:49:59;;;;;;;;;;;;;;;;;;6231853;23;20324;-86
2022/10/31 11:52:25;;;;;;;;;;;;;;;;;;6230742;23;20029;-87
2022/10/31 11:54:51;;;;;;;;;;;;;;;;;;6232087;22;19923;-86
2022/10/31 11:57:17;;;;;;;;;;;;;;;;;;6228647;23;20034;-87
2022/10/31 11:59:43;;;;;;;;;;;;;;;;;;6235688;22;19927;-86
2022/10/31 12:02:09;;;;;;;;;;;;;;;;;;6229818;23;19923;-86
2022/10/31 12:04:35;;;;;;;;;;;;;;;;;;6232894;23;19916;-86
2022/10/31 12:07:01;;;;;;;;;;;;;;;;;;6233828;22;20357;-86
2022/10/31 12:09:27;;;;;;;;;;;;;;;;;;6233311;22;19923;-86
2022/10/31 12:11:53;;;;;;;;;;;;;;;;;;6235559;22;20256;-86
2022/10/31 12:14:19;;;;;;;;;;;;;;;;;;6234381;22;19919;-86
2022/10/31 12:16:45;;;;;;;;;;;;;;;;;;6233998;22;20384;-86
2022/10/31 12:19:11;;;;;;;;;;;;;;;;;;6231939;22;19915;-86
2022/10/31 12:21:37;;;;;;;;;;;;;;;;;;6233348;23;19973;-86
2022/10/31 12:24:03;;;;;;;;;;;;;;;;;;6233759;22;19919;-86
2022/10/31 12:26:29;;;;;;;;;;;;;;;;;;6233970;22;20002;-86
2022/10/31 12:28:57;;;;;;;;;;;;;;;;;;6235864;22;20296;-86
2022/10/31 12:31:23;;;;;;;;;;;;;;;;;;6230848;23;19926;-86
2022/10/31 12:33:49;;;;;;;;;;;;;;;;;;6255787;23;19924;-87
2022/10/31 12:36:15;;;;;;;;;;;;;;;;;;6252222;22;19916;-87
2022/10/31 12:38:41;;;;;;;;;;;;;;;;;;6279730;22;19915;-86
2022/10/31 12:41:09;;;;;;;;;;;;;;;;;;6250076;23;19903;-89
2022/10/31 12:43:35;;;;;;;;;;;;;;;;;;6255929;22;19919;-86
2022/10/31 12:46:01;;;;;;;;;;;;;;;;;;6255457;23;19920;-86
2022/10/31 12:48:27;;;;;;;;;;;;;;;;;;6252828;23;20259;-86
2022/10/31 12:50:53;;;;;;;;;;;;;;;;;;6258207;23;19926;-86
2022/10/31 12:53:19;;;;;;;;;;;;;;;;;;6253405;23;19994;-86
2022/10/31 12:55:45;;;;;;;;;;;;;;;;;;6257540;22;19914;-86
2022/10/31 12:58:11;;;;;;;;;;;;;;;;;;6253466;23;19919;-86
2022/10/31 13:00:37;;;;;;;;;;;;;;;;;;6245772;22;19955;-87
2022/10/31 13:03:03;;;;;;;;;;;;;;;;;;6272824;22;19958;-86
2022/10/31 13:05:29;;;;;;;;;;;;;;;;;;6257135;22;20355;-86
2022/10/31 13:07:55;;;;;;;;;;;;;;;;;;6260041;22;19930;-86
2022/10/31 13:10:21;;;;;;;;;;;;;;;;;;6259991;22;19923;-86
2022/10/31 13:12:47;;;;;;;;;;;;;;;;;;6259246;22;19919;-86
2022/10/31 13:15:13;;;;;;;;;;;;;;;;;;6233725;22;19919;-86
2022/10/31 13:17:39;;;;;;;;;;;;;;;;;;6239184;22;19991;-87
2022/10/31 13:20:05;;;;;;;;;;;;;;;;;;6264521;22;20238;-86
2022/10/31 13:22:31;;;;;;;;;;;;;;;;;;6234613;22;19919;-87
2022/10/31 13:24:57;;;;;;;;;;;;;;;;;;6236837;22;19938;-88
2022/10/31 13:27:23;;;;;;;;;;;;;;;;;;6236175;22;19915;-87
2022/10/31 13:29:49;;;;;;;;;;;;;;;;;;6265281;22;19950;-87
2022/10/31 13:32:15;;;;;;;;;;;;;;;;;;6262597;22;19922;-87
2022/10/31 13:34:41;;;;;;;;;;;;;;;;;;6264976;22;19923;-87
2022/10/31 13:37:07;;;;;;;;;;;;;;;;;;6263000;22;19915;-87
2022/10/31 13:39:33;;;;;;;;;;;;;;;;;;6238670;22;19965;-87
2022/10/31 13:41:59;;;;;;;;;;;;;;;;;;6263206;22;19915;-87
2022/10/31 13:44:25;;;;;;;;;;;;;;;;;;6237418;22;19997;-88
2022/10/31 13:46:51;;;;;;;;;;;;;;;;;;6266434;22;19915;-87
2022/10/31 13:49:26;;;;;;;;;;;;;;;;;;6239513;22;19934;-88
2022/10/31 13:51:52;;;;;;;;;;;;;;;;;;6234266;22;19918;-88
2022/10/31 13:54:24;;;;;;;;;;;;;;;;;;6255655;22;20005;-89
2022/10/31 13:56:51;;;;;;;;;;;;;;;;;;6260461;22;20252;-88
2022/10/31 13:59:19;;;;;;;;;;;;;;;;;;6257589;22;19977;-87
2022/10/31 14:01:45;;;;;;;;;;;;;;;;;;6225771;23;19927;-87
2022/10/31 14:04:11;;;;;;;;;;;;;;;;;;6226718;23;19927;-87
2022/10/31 14:06:37;;;;;;;;;;;;;;;;;;6228361;23;20317;-87
2022/10/31 14:09:08;;;;;;;;;;;;;;;;;;6228934;23;20271;-89
2022/10/31 14:36:32;;;;;;;;;;;;;;;;;;;;;
2022/10/31 14:39:22;;;;;;;;;;;;;;;;;;6095002;23;19976;-86
2022/10/31 14:42:20;;;;;;;;;;;;;;;;;;6144107;23;19991;-86
2022/10/31 14:45:27;;;;;;;;;;;;;;;;;;;;;
2022/10/31 14:48:34;;;;;;;;;;;;;;;;;;;;;
2022/10/31 15:02:12;;;;;;;;;;;;;;;;;;6260414;22;20047;-86
2022/10/31 15:04:38;;;;;;;;;;;;;;;;;;6267581;22;19923;-85
2022/10/31 15:07:04;;;;;;;;;;;;;;;;;;6293048;22;20331;-86
2022/10/31 15:09:30;;;;;;;;;;;;;;;;;;6289327;22;19974;-86
2022/10/31 15:11:56;;;;;;;;;;;;;;;;;;6291547;22;19923;-85
2022/10/31 15:14:22;;;;;;;;;;;;;;;;;;6291906;22;19969;-86
2022/10/31 15:16:47;;;;;;;;;;;;;;;;;;6291401;22;19923;-85
2022/10/31 15:19:13;;;;;;;;;;;;;;;;;;6292916;22;19959;-85
2022/10/31 15:21:39;;;;;;;;;;;;;;;;;;6290712;22;20375;-85
2022/10/31 15:24:05;;;;;;;;;;;;;;;;;;6291268;22;20031;-85
2022/10/31 15:26:32;;;;;;;;;;;;;;;;;;6290726;22;19919;-85
2022/10/31 15:28:58;;;;;;;;;;;;;;;;;;6291388;22;19930;-85
2022/10/31 15:31:24;;;;;;;;;;;;;;;;;;6287467;22;19999;-85
2022/10/31 15:33:50;;;;;;;;;;;;;;;;;;6296787;22;19947;-85
2022/10/31 15:53:10;;;;;;;;;;;;;;;;;;6245955;22;19927;-86
2022/10/31 15:55:36;;;;;;;;;;;;;;;;;;6281173;22;19981;-87
2022/10/31 15:58:04;;;;;;;;;;;;;;;;;;6260491;22;20130;-87
2022/10/31 16:06:27;;;;;;;;;;;;;;;;;;6231532;22;20357;-87
2022/10/31 16:08:55;;;;;;;;;;;;;;;;;;6264889;22;19980;-87
2022/10/31 16:11:31;;;;;;;;;;;;;;;;;;6226675;23;19919;-87
2022/10/31 16:14:15;;;;;;;;;;;;;;;;;;6136345;23;19920;-87
2022/10/31 16:19:52;;;;;;;;;;;;;;;;;;;;;
2022/10/31 16:22:34;;;;;;;;;;;;;;;;;;;;;
2022/10/31 16:25:32;;;;;;;;;;;;;;;;;;6182575;23;20359;-87
2022/10/31 16:28:32;;;;;;;;;;;;;;;;;;6204773;23;19919;-87
2022/10/31 16:31:02;;;;;;;;;;;;;;;;;;6135237;23;19924;-87
2022/10/31 16:39:45;;;;;;;;;;;;;;;;;;6108838;23;19924;-87
2022/10/31 16:42:19;;;;;;;;;;;;;;;;;;6103791;23;19967;-87
2022/10/31 16:48:21;;;;;;;;;;;;;;;;;;;;;
2022/10/31 16:59:46;;;;;;;;;;;;;;;;;;6018932;23;19985;-87
2022/10/31 17:02:33;;;;;;;;;;;;;;;;;;6014489;23;19929;-87
2022/10/31 17:14:18;;;;;;;;;;;;;;;;;;6051448;23;19922;-87
2022/10/31 17:17:17;;;;;;;;;;;;;;;;;;6058950;23;19990;-87
2022/10/31 17:20:11;;;;;;;;;;;;;;;;;;;;;
2022/10/31 17:26:12;;;;;;;;;;;;;;;;;;;;;
2022/10/31 17:29:04;;;;;;;;;;;;;;;;;;;;;
2022/10/31 17:31:35;;;;;;;;;;;;;;;;;;5964955;23;19922;-87
2022/10/31 17:37:27;;;;;;;;;;;;;;;;;;5947667;23;19922;-87
2022/10/31 17:39:59;;;;;;;;;;;;;;;;;;5944852;24;19945;-87
2022/10/31 17:42:40;;;;;;;;;;;;;;;;;;6029010;23;20031;-87
2022/10/31 17:45:15;;;;;;;;;;;;;;;;;;6082867;23;19921;-87
2022/10/31 17:51:22;;;;;;;;;;;;;;;;;;6082790;23;19925;-87
2022/10/31 17:54:22;;;;;;;;;;;;;;;;;;;;;
2022/10/31 17:56:53;;;;;;;;;;;;;;;;;;6143065;23;19991;-86
2022/10/31 18:05:36;;;;;;;;;;;;;;;;;;6176689;23;20002;-87
2022/10/31 18:11:13;;;;;;;;;;;;;;;;;;;;;
2022/10/31 18:13:44;;;;;;;;;;;;;;;;;;6087044;23;19971;-87
2022/10/31 18:16:16;;;;;;;;;;;;;;;;;;6154640;23;19920;-87
2022/10/31 18:18:52;;;;;;;;;;;;;;;;;;;;;
2022/10/31 18:21:35;;;;;;;;;;;;;;;;;;6176564;23;19976;-87
2022/10/31 18:27:06;;;;;;;;;;;;;;;;;;6174798;23;19926;-87
2022/10/31 18:29:32;;;;;;;;;;;;;;;;;;6145793;23;20007;-87
2022/10/31 18:32:06;;;;;;;;;;;;;;;;;;6172390;23;19947;-87
2022/10/31 18:35:10;;;;;;;;;;;;;;;;;;6175230;23;20625;-87
2022/10/31 18:41:07;;;;;;;;;;;;;;;;;;6144516;23;19937;-87
2022/10/31 18:43:33;;;;;;;;;;;;;;;;;;6127486;22;19920;-87
2022/10/31 18:45:59;;;;;;;;;;;;;;;;;;6239609;22;19984;-87
2022/10/31 18:48:30;;;;;;;;;;;;;;;;;;6233702;22;19919;-87
2022/10/31 18:50:56;;;;;;;;;;;;;;;;;;6235067;22;19930;-87
2022/10/31 18:53:22;;;;;;;;;;;;;;;;;;6233832;22;19968;-87